Latest Coastal Weather Observations for Carnarvon

IDW60701

Issued at 1:33 am WST Thursday 3 September 2026 (issued every 10 minutes, with the page automatically refreshed every 10 minutes)

About coastal observations | Map of coastal stations | Coastal observations for WA | Marine services | Other Formats
Station Details ID: 006011 Name: CARNARVON AIRPORT Lat: -24.89 Lon: 113.67 Height: 4.0 m
Data from the previous 72 hours. | See also: Recent months at Carnarvon
Date/Time
WST
Wind Sea
Height
m
Swell Vis
km
Cloud Weather Temp
°C
Press
MSL
hPa
Rain since
9am
mm
Dir  Spd
kts
Gust
kts
Height
m
Period
s
Dir
03/01:30am S 13 19 - - - - 10 Clear - 17.2 1020.0 0.0
03/01:00am S 14 18 - - - - 10 - - 17.3 1020.2 0.0
03/12:30am S 16 21 - - - - 10 - - 17.4 1020.3 0.0
03/12:00am S 15 20 - - - - 10 Mostly clear - 17.5 1020.6 0.0
 
Date/Time
WST
Wind Sea
Height
m
Swell Vis
km
Cloud Weather Temp
°C
Press
MSL
hPa
Rain since
9am
mm
Dir  Spd
kts
Gust
kts
Height
m
Period
s
Dir
02/11:30pm S 15 20 - - - - 10 Partly cloudy - 17.7 1020.7 0.0
02/11:00pm S 15 19 - - - - 10 - - 17.7 1020.9 0.0
02/10:30pm S 15 18 - - - - 10 Partly cloudy - 17.8 1021.1 0.0
02/10:00pm S 14 19 - - - - 10 Partly cloudy - 18.1 1021.2 0.0
02/09:30pm S 14 19 - - - - 10 Mostly clear - 18.4 1021.3 0.0
02/09:00pm S 13 16 - - - - 10 Mostly clear - 18.4 1021.4 0.0
02/08:30pm S 12 15 - - - - 10 - - 18.6 1021.1 0.0
02/08:00pm S 14 18 - - - - 10 - - 19.1 1021.0 0.0
02/07:30pm SSW 14 17 - - - - 10 - - 19.3 1020.8 0.0
02/07:00pm SSW 14 19 - - - - 10 - - 19.7 1020.5 0.0
02/06:30pm SSW 15 19 - - - - 10 - - 20.0 1020.4 0.0
02/06:00pm SSW 16 23 - - - - 10 - - 20.4 1020.3 0.0
02/05:30pm SSW 16 21 - - - - 10 - - 21.0 1020.3 0.0
02/05:00pm S 17 22 - - - - 10 - - 21.6 1020.2 0.0
02/04:30pm S 19 24 - - - - 10 - - 22.0 1020.1 0.0
02/04:00pm S 20 26 - - - - 10 - - 22.8 1020.1 0.0
02/03:30pm S 18 24 - - - - 10 - - 23.1 1020.0 0.0
02/03:00pm S 19 24 - - - - 10 - - 23.4 1020.2 0.0
02/02:30pm S 19 23 - - - - 10 - - 22.8 1020.3 0.0
02/02:00pm S 19 25 - - - - 10 - - 23.0 1020.5 0.0
02/01:30pm S 20 25 - - - - 10 - - 22.9 1020.7 0.0
02/01:00pm S 21 26 - - - - 10 - - 22.4 1021.1 0.0
02/12:30pm S 20 25 - - - - 10 - - 22.1 1021.5 0.0
02/12:00pm S 21 27 - - - - 10 - - 22.4 1021.9 0.0
02/11:30am S 21 27 - - - - 10 - - 22.2 1022.2 0.0
02/11:00am SSE 16 21 - - - - 10 - - 23.0 1022.4 0.0
02/10:30am SSE 17 22 - - - - 10 - - 23.0 1022.6 0.0
02/10:00am SSE 20 26 - - - - 10 - - 21.6 1022.7 0.0
02/09:30am SSE 20 25 - - - - 10 - - 20.7 1022.7 0.0
02/09:00am SSE 17 21 - - - - 10 - - 20.2 1022.6 0.0
02/08:30am SSE 17 22 - - - - 10 - - 19.5 1022.4 0.0
02/08:00am SSE 15 19 - - - - 10 - - 17.7 1022.4 0.0
02/07:30am SSE 10 13 - - - - 10 - - 16.6 1022.1 0.0
02/07:00am SSE 8 9 - - - - 10 - - 15.6 1021.8 0.0
02/06:30am SSE 8 9 - - - - 10 - - 15.7 1021.6 0.0
02/06:00am SSE 11 13 - - - - 10 - - 16.3 1021.3 0.0
02/05:30am SSE 12 15 - - - - 10 - - 16.9 1021.0 0.0
02/05:00am SSE 15 19 - - - - 10 - - 17.4 1020.9 0.0
02/04:30am SSE 11 18 - - - - 10 - - 17.9 1020.6 0.0
02/04:00am SSE 11 15 - - - - 10 - - 17.8 1020.6 0.0
02/03:30am S 14 19 - - - - 10 - - 18.0 1020.4 0.0
02/03:00am S 15 19 - - - - 10 - - 18.2 1020.5 0.0
02/02:30am S 16 23 - - - - 10 - - 18.4 1020.5 0.0
02/02:00am S 15 19 - - - - 10 - - 18.6 1020.5 0.0
02/01:30am S 15 20 - - - - 10 - - 18.8 1020.7 0.0
02/01:00am S 14 19 - - - - 10 - - 18.8 1020.9 0.0
02/12:30am S 14 19 - - - - 10 - - 19.0 1021.0 0.0
02/12:00am S 15 19 - - - - 10 - - 19.1 1021.1 0.0
 
Date/Time
WST
Wind Sea
Height
m
Swell Vis
km
Cloud Weather Temp
°C
Press
MSL
hPa
Rain since
9am
mm
Dir  Spd
kts
Gust
kts
Height
m
Period
s
Dir
01/11:30pm S 15 21 - - - - 10 - - 19.3 1021.2 0.0
01/11:00pm SSW 15 23 - - - - 10 - - 19.4 1021.4 0.0
01/10:30pm SSW 15 19 - - - - 10 - - 19.5 1021.6 0.0
01/10:00pm SSW 15 21 - - - - 10 - - 19.6 1021.6 0.0
01/09:30pm SSW 16 21 - - - - 10 - - 19.7 1021.6 0.0
01/09:00pm SSW 15 20 - - - - 10 - - 19.8 1021.4 0.0
01/08:30pm SSW 16 19 - - - - 10 - - 20.0 1021.0 0.0
01/08:00pm SSW 15 19 - - - - 10 - - 20.2 1020.7 0.0
01/07:30pm SSW 13 17 - - - - 10 - - 20.3 1020.4 0.0
01/07:00pm SSW 13 17 - - - - 10 - - 20.4 1020.2 0.0
01/06:30pm SSW 13 17 - - - - 10 - - 20.6 1020.0 0.0
01/06:00pm SSW 14 18 - - - - 10 - - 20.9 1019.8 0.0
01/05:30pm SSW 17 21 - - - - 10 - - 22.0 1019.6 0.0
01/05:00pm SSW 17 22 - - - - 10 - - 23.0 1019.5 0.0
01/04:30pm SSW 17 21 - - - - 10 - - 22.8 1019.5 0.0
01/04:00pm SSW 17 21 - - - - 10 - - 22.4 1019.5 0.0
01/03:30pm SSW 17 21 - - - - 10 - - 22.4 1019.7 0.0
01/03:00pm SSW 16 21 - - - - 10 - - 22.5 1019.7 0.0
01/02:30pm SSW 19 23 - - - - 10 - - 22.6 1019.9 0.0
01/02:00pm SSW 19 24 - - - - 10 - - 22.5 1020.0 0.0
01/01:30pm SSW 18 24 - - - - 10 - - 22.6 1020.3 0.0
01/01:00pm SSW 19 25 - - - - 10 - - 22.3 1020.6 0.0
01/12:30pm SSW 17 22 - - - - 10 - - 23.7 1020.9 0.0
01/12:00pm S 12 17 - - - - 10 - - 23.6 1021.5 0.0
01/11:30am SSE 13 19 - - - - 10 - - 23.5 1022.0 0.0
01/11:00am SE 14 18 - - - - 10 - - 22.8 1022.2 0.0
01/10:30am SSE 14 19 - - - - 10 - - 22.8 1022.5 0.0
01/10:00am SSE 14 18 - - - - 10 - - 22.1 1022.8 0.0
01/09:30am SSE 15 18 - - - - 10 - - 21.0 1023.0 0.0
01/09:00am SSE 12 16 - - - - 10 - - 20.4 1023.1 0.0
01/08:30am SE 13 18 - - - - 10 - - 18.7 1023.2 0.0
01/08:00am SE 9 13 - - - - 10 - - 17.4 1023.1 0.0
01/07:30am SE 7 10 - - - - 10 - - 15.9 1022.7 0.0
01/07:00am SE 7 7 - - - - 10 - - 14.6 1022.4 0.0
01/06:30am SE 7 9 - - - - 10 - - 14.7 1022.2 0.0
01/06:00am SE 8 9 - - - - 10 - - 15.0 1021.9 0.0
01/05:30am SSE 8 11 - - - - 10 - - 15.6 1021.7 0.0
01/05:00am SSE 9 11 - - - - 10 - - 15.8 1021.5 0.0
01/04:30am SSE 9 10 - - - - 10 - - 16.0 1021.4 0.0
01/04:00am SSE 10 13 - - - - 10 - - 16.5 1021.2 0.0
01/03:30am SSE 11 14 - - - - 10 - - 16.8 1021.3 0.0
01/03:00am SSE 9 12 - - - - 10 - - 16.6 1021.7 0.0
01/02:30am SSE 8 11 - - - - 10 - - 16.7 1021.9 0.0
01/02:00am S 10 13 - - - - 10 - - 17.6 1022.1 0.0
01/01:30am S 10 12 - - - - 10 - - 17.9 1022.2 0.0
01/01:00am S 9 12 - - - - 10 - - 17.9 1022.4 0.0
01/12:30am S 9 13 - - - - 10 - - 18.0 1022.5 0.0
01/12:00am S 9 11 - - - - 10 - - 18.2 1022.6 0.0
 
Date/Time
WST
Wind Sea
Height
m
Swell Vis
km
Cloud Weather Temp
°C
Press
MSL
hPa
Rain since
9am
mm
Dir  Spd
kts
Gust
kts
Height
m
Period
s
Dir
31/11:30pm S 9 12 - - - - 10 - - 18.4 1022.6 0.0
31/11:00pm S 9 11 - - - - 10 - - 18.8 1022.6 0.0
31/10:30pm S 11 13 - - - - 10 - - 19.2 1022.5 0.0
31/10:00pm SSW 12 16 - - - - 10 - - 19.6 1022.7 0.0
31/09:30pm SSW 12 16 - - - - 10 - - 19.9 1022.6 0.0
31/09:00pm SSW 11 13 - - - - 10 - - 19.8 1022.6 0.0
31/08:30pm SW 8 12 - - - - 10 - - 19.6 1022.4 0.0
31/08:00pm SW 10 13 - - - - 10 - - 19.8 1022.1 0.0
31/07:30pm SW 9 11 - - - - 10 - - 19.5 1021.9 0.0
31/07:00pm WSW 9 11 - - - - 10 - - 19.7 1021.8 0.0
31/06:30pm WSW 9 11 - - - - 10 - - 19.9 1021.4 0.0
31/06:00pm SW 8 10 - - - - 10 - - 20.5 1021.1 0.0
31/05:30pm SW 9 11 - - - - 10 - - 21.3 1020.8 0.0
31/05:00pm SW 9 11 - - - - 10 - - 21.8 1020.5 0.0
31/04:30pm SW 9 11 - - - - 10 - - 22.7 1020.5 0.0
31/04:00pm SW 11 14 - - - - 10 - - 22.6 1020.3 0.0
31/03:30pm SW 11 13 - - - - 10 - - 23.0 1020.4 0.0
31/03:00pm SSW 10 14 - - - - 10 - - 23.2 1020.3 0.0
31/02:30pm SSW 12 15 - - - - 10 - - 23.1 1020.4 0.0
31/02:00pm SSW 12 15 - - - - 10 - - 23.7 1020.4 0.0
31/01:30pm SSW 13 16 - - - - 10 - - 22.3 1020.6 0.0
31/01:00pm SSW 14 17 - - - - 10 - - 22.2 1020.6 0.0
31/12:30pm SSW 15 17 - - - - 10 - - 22.1 1020.8 0.0
31/12:00pm SW 13 16 - - - - 10 - - 22.0 1021.0 0.0
31/11:30am SW 12 14 - - - - 10 - - 21.7 1021.0 0.0
31/11:00am SW 10 11 - - - - 10 - - 21.9 1021.2 0.0
31/10:30am SW 8 10 - - - - 10 - - 21.9 1021.4 0.0
31/10:00am SSW 8 10 - - - - 10 - - 21.3 1021.5 0.0
31/09:30am SSW 8 11 - - - - 10 - - 20.6 1021.5 0.0
31/09:00am SSW 8 10 - - - - 10 - - 20.3 1021.5 0.0
31/08:30am SSW 7 9 - - - - 10 - - 19.6 1021.5 0.0
31/08:00am S 4 6 - - - - 10 - - 17.7 1021.3 0.0
31/07:33am S 1 3 - - - - 10 - - 14.8 1021.2 0.0
31/07:30am S 1 3 - - - - 10 - - 14.9 1021.2 0.0
31/07:00am CALM 0 0 - - - - 1 - - 12.8 1020.8 0.0
31/06:30am CALM 0 0 - - - - 0.7 - - 12.9 1020.5 0.0
31/06:00am CALM 0 0 - - - - 9 - - 13.2 1020.1 0.0
31/05:30am CALM 0 0 - - - - 0.4 - - 13.2 1020.0 0.0
31/05:04am S 3 4 - - - - 3 - - 13.3 1019.9 0.0
31/05:00am S 3 4 - - - - 10 - - 14.2 1019.9 0.0
31/04:30am S 5 6 - - - - 10 - - 14.5 1019.8 0.0
31/04:12am S 4 5 - - - - 10 - - 14.0 1019.7 0.0
31/04:00am S 4 5 - - - - 3 - - 13.9 1019.7 0.0
31/03:30am S 3 4 - - - - 1 - - 13.5 1019.7 0.0
31/03:15am S 4 5 - - - - 6 - - 13.9 1019.7 0.0
31/03:00am S 4 5 - - - - 10 - - 14.0 1019.7 0.0
31/02:30am S 5 5 - - - - 10 - - 14.6 1019.7 0.0
31/02:00am S 6 7 - - - - 10 - - 15.8 1019.8 0.0

Other formats

Comma delimited format used in spreadsheet applications
http://www.bom.gov.au/fwo/IDW60701/IDW60701.94300.axf

JavaScript Object Notation format (JSON) in row-major order
http://www.bom.gov.au/fwo/IDW60701/IDW60701.94300.json

Data quality

Most of these data are generated automatically and are frequently updated. Quality checks on data are not normally performed. It is possible for incorrect values to appear. Refer to information at About Latest Weather Observations and please check the disclaimer before using these data.